CYSM

Fort Smith Airport

Fort Smith, Northwest Territories, Canada
METAR CYSM 170000Z 14005KT 12SM -SN OVC010 M12/M14 A2966 RMK SC8 SLP066
Observed Flight Rules
Dec-17 @ 00:00 UTC (26 minutes ago) Marginal Visual Flight Rules
Wind Visibility Clouds Conditions
140° at 5 knots 12 miles
  • Overcast at 1,000' AGL
  • Light Snow
Temperatures Readings
Current -12°C / 10°F
Dewpoint -14°C / 7°F
Humidity 85%
Altimeter 29.66" Hg
Pressure 1006.6 hPa
Elevation 203
METAR CYSM 170000Z 14005KT 12SM -SN OVC010 M12/M14 A2966 RMK SC8 SLP066
Observed Flight Rules
Dec-17 @ 00:00 UTC
(26 minutes ago)
MVFR
Wind Visibility
140° at 5 knots 12 miles
Clouds
  • Overcast at 1,000' AGL
Conditions
  • Light Snow
Temperature Dewpoint
-12°C / 10°F -14°C / 7°F
Humidity Altimeter Pressure
85% 29.66" Hg 1006.6 hPa